Suttons Bay, MI

6:12 PM EST on November 26, 2014 (GMT -0500)
Charlevoix Municipal | Change Station
CLOSE
Current Station
Airport
Location: Charlevoix,
Elevation: 669 ft
Nearby Weather Stations

Elev 669 ft 45.30 °N, 85.27 °W | Updated 18 minutes ago

Overcast
Overcast
27 °F
Feels Like 23 °F
N
4
Wind Variable Wind from SE

Today
High -- | Low -- °F
--% Chance of Precip.
Yesterday
High -- | Low -- °F
Precip. -- in
7:54 AM 5:04 PM
Waxing Crescent, 23% visible
Pressure 30.18 in
Visibility 10.0 miles
Clouds Overcast 3300 ft
Windchill 23 °F
Dew Point 24 °F
Humidity 88%
Rainfall 0.00 in
Snow Depth Not available.
UV 0 out of 12
Pollen .10 out of 12
Air Quality Not available.
Flu Activity Not available.
METAR KCVX 262254Z AUTO 14003KT 10SM OVC033 M03/M04 A3018 RMK AO2 T10281045

More Conditions Fewer Conditions

Pressure 30.18 in
Visibility 10.0 miles
Clouds Overcast 3300 ft
Windchill 23 °F
Dew Point 24 °F
Humidity 88%
Rainfall 0.00 in
Snow Depth Not available.
UV 0 out of 12
Pollen .10 out of 12
Air Quality Not available.
Flu Activity Not available.
METAR KCVX 262254Z AUTO 14003KT 10SM OVC033 M03/M04 A3018 RMK AO2 T10281045

More Conditions Fewer Conditions

Nowcast | as of 6:00 PM EST on November 26, 2014

At 7 PM...cloudy. Isolated snow showers. Temperature 28. Light winds. At 9 PM...cloudy. Isolated snow showers. Temperature 28. Light winds. At 11 PM...cloudy. Occasional flurries. Temperature 28. Light winds. At 1 am...snow showers. Temperature 28. Northwest winds 5 mph.

×

10-Day Weather Forecast

Almanac

Astronomy

Nov. 26, 2014 Rise Set
Actual Time
Civil Twilight
Nautical Twilight
Astronomical Twilight
Moon
Length of Visible Light
Length of Day
Tomorrow will be .
, % of the Moon is Illuminated

Today's Extremes

State Highs State Lows

Community

WunderPhotos

Upload Photos

1,773,913 photos uploaded!

WunderBlogs® & News

Nearby

Air Quality

  Air Quality AQ Index Pollutant
Not available.

Snow Depth

Station Depth Elevation

Earthquake Activity

City Distance Mag. Time & Date
Minimum magnitude displayed is 2.5.

Coastal Water Temperatures

Place Temperature

Nearby Weather Stations